Time;durP1;ratioP1;P1;durP2;ratioP2;P2;SDS_P1;SDS_P2;PMS_P1;PMS_P2;Temp;Humidity;BMP_temperature;BMP_pressure;BME280_temperature;BME280_humidity;BME280_pressure;Samples;Min_cycle;Max_cycle;Signal;HPM_P1;HPM_P2
2022/01/13 00:02:13;;;;;;;;;;;-2.70;73.20;;;;;;5042534;28;20400;-79
2022/01/13 00:04:40;;;;;;;;;;;-2.70;73.10;;;;;;5042421;28;20493;-77
2022/01/13 00:07:09;;;;;;;;;;;-2.90;74.40;;;;;;5048354;28;20403;-78
2022/01/13 00:09:36;;;;;;;;;;;-3.00;74.30;;;;;;5063793;28;19932;-78
2022/01/13 00:12:04;;;;;;;;;;;-3.10;73.80;;;;;;5047640;28;19921;-81
2022/01/13 00:24:44;;;;;;;;;;;-3.20;74.10;;;;;;5067910;28;19920;-79
2022/01/13 00:27:13;;;;;;;;;;;-3.20;74.10;;;;;;5053090;28;19928;-81
2022/01/13 00:29:43;;;;;;;;;;;-3.20;74.30;;;;;;5051172;28;19928;-81
2022/01/13 00:32:12;;;;;;;;;;;-3.30;74.60;;;;;;5047280;28;19925;-78
2022/01/13 00:34:40;;;;;;;;;;;-3.30;75.00;;;;;;5054980;28;19983;-81
2022/01/13 00:37:07;;;;;;;;;;;-3.30;75.30;;;;;;5037230;28;20300;-79
2022/01/13 00:39:33;;;;;;;;;;;-3.30;74.90;;;;;;5043223;28;20389;-81
2022/01/13 00:42:00;;;;;;;;;;;-3.40;75.10;;;;;;5043883;28;19921;-79
2022/01/13 00:44:27;;;;;;;;;;;-3.30;74.80;;;;;;5052112;28;19920;-78
2022/01/13 00:46:58;;;;;;;;;;;-3.30;74.70;;;;;;5057228;28;20377;-77
2022/01/13 00:49:25;;;;;;;;;;;-3.30;75.90;;;;;;5072202;28;20380;-77
2022/01/13 00:51:52;;;;;;;;;;;-3.30;75.70;;;;;;5051774;28;19970;-81
2022/01/13 00:54:19;;;;;;;;;;;-3.30;76.30;;;;;;5030157;28;20339;-78
2022/01/13 00:56:46;;;;;;;;;;;-3.30;75.50;;;;;;5034578;28;19925;-77
2022/01/13 00:59:14;;;;;;;;;;;-3.30;76.60;;;;;;5043560;28;19943;-79
2022/01/13 01:01:48;;;;;;;;;;;-3.30;75.60;;;;;;5029143;28;19925;-79
2022/01/13 01:04:16;;;;;;;;;;;-3.30;74.80;;;;;;5044483;28;19925;-79
2022/01/13 01:06:43;;;;;;;;;;;-3.30;74.60;;;;;;5046924;28;19925;-79
2022/01/13 01:09:16;;;;;;;;;;;-3.40;74.40;;;;;;5041742;28;20368;-81
2022/01/13 01:11:46;;;;;;;;;;;-3.40;74.80;;;;;;5035726;28;19967;-78
2022/01/13 01:14:14;;;;;;;;;;;-3.50;75.80;;;;;;5036462;28;19920;-78
2022/01/13 01:16:41;;;;;;;;;;;-3.50;75.80;;;;;;5025979;28;19932;-79
2022/01/13 01:19:10;;;;;;;;;;;-3.50;75.10;;;;;;5029481;28;20326;-78
2022/01/13 01:29:14;;;;;;;;;;;-3.70;79.00;;;;;;5062506;28;20343;-78
2022/01/13 01:31:46;;;;;;;;;;;-3.70;80.80;;;;;;5042071;28;19971;-79
2022/01/13 01:36:43;;;;;;;;;;;-3.60;79.00;;;;;;5051795;28;19924;-81
2022/01/13 01:39:10;;;;;;;;;;;-3.60;78.70;;;;;;5049042;28;20319;-79
2022/01/13 01:41:38;;;;;;;;;;;-3.60;78.60;;;;;;5046852;28;19925;-81
2022/01/13 01:44:06;;;;;;;;;;;-3.60;78.00;;;;;;5051890;28;20320;-81
2022/01/13 01:46:34;;;;;;;;;;;-3.70;77.70;;;;;;5057465;28;19920;-78
2022/01/13 01:49:04;;;;;;;;;;;-3.70;77.10;;;;;;5048064;28;19921;-79
2022/01/13 01:51:31;;;;;;;;;;;-3.70;76.70;;;;;;5048206;28;19979;-79
2022/01/13 01:53:58;;;;;;;;;;;-3.70;76.40;;;;;;5051038;28;19925;-77
2022/01/13 01:56:25;;;;;;;;;;;-3.70;78.40;;;;;;5046615;28;19929;-78
2022/01/13 01:58:52;;;;;;;;;;;-3.70;77.40;;;;;;5030671;28;19936;-81
2022/01/13 02:01:19;;;;;;;;;;;-3.80;77.70;;;;;;5046706;28;19925;-77
2022/01/13 02:03:46;;;;;;;;;;;-3.70;77.90;;;;;;5043221;28;20008;-81
2022/01/13 02:06:13;;;;;;;;;;;-3.80;80.10;;;;;;5044154;28;19920;-81
2022/01/13 02:08:40;;;;;;;;;;;-3.80;80.20;;;;;;5053490;28;19970;-77
2022/01/13 02:11:06;;;;;;;;;;;-3.80;79.40;;;;;;5050655;28;19975;-77
2022/01/13 02:13:34;;;;;;;;;;;-3.80;79.60;;;;;;5052697;28;19924;-79
2022/01/13 02:16:04;;;;;;;;;;;-3.80;78.10;;;;;;5050542;28;20384;-78
2022/01/13 02:18:32;;;;;;;;;;;-3.70;77.80;;;;;;5049759;28;19928;-78
2022/01/13 02:21:00;;;;;;;;;;;-3.60;77.00;;;;;;5048417;28;19921;-77
2022/01/13 02:23:38;;;;;;;;;;;-3.30;76.10;;;;;;5046239;28;19928;-79
2022/01/13 02:26:09;;;;;;;;;;;-3.10;75.00;;;;;;5043927;28;19986;-77
2022/01/13 02:28:36;;;;;;;;;;;-2.80;73.40;;;;;;5050491;28;19993;-79
2022/01/13 02:31:04;;;;;;;;;;;-2.60;72.40;;;;;;5058366;28;19921;-78
2022/01/13 02:33:31;;;;;;;;;;;-2.60;72.30;;;;;;5044182;28;19924;-81
2022/01/13 02:35:58;;;;;;;;;;;-2.70;72.40;;;;;;5039362;28;20385;-81
2022/01/13 02:38:25;;;;;;;;;;;-2.80;73.00;;;;;;5030859;28;19921;-77
2022/01/13 02:40:55;;;;;;;;;;;-2.90;72.60;;;;;;5049238;28;19924;-78
2022/01/13 02:43:24;;;;;;;;;;;-2.90;73.90;;;;;;5038413;28;19944;-78
2022/01/13 02:46:04;;;;;;;;;;;-3.00;73.60;;;;;;5030203;28;19925;-78
2022/01/13 02:48:35;;;;;;;;;;;-3.00;73.60;;;;;;5050459;28;20392;-81
2022/01/13 02:51:02;;;;;;;;;;;-3.10;74.50;;;;;;5053750;28;20369;-79
2022/01/13 02:53:29;;;;;;;;;;;-3.10;74.20;;;;;;5062115;28;20380;-78
2022/01/13 02:56:01;;;;;;;;;;;-3.20;74.20;;;;;;5054535;28;19920;-81
2022/01/13 02:58:28;;;;;;;;;;;-3.20;74.50;;;;;;5057281;28;19931;-80
2022/01/13 03:00:55;;;;;;;;;;;-3.30;74.60;;;;;;5053898;28;19994;-78
2022/01/13 03:03:22;;;;;;;;;;;-3.40;74.30;;;;;;5067619;28;19921;-81
2022/01/13 03:05:49;;;;;;;;;;;-3.50;75.50;;;;;;5061009;28;19928;-81
2022/01/13 03:08:16;;;;;;;;;;;-3.40;76.30;;;;;;5060567;28;19921;-79
2022/01/13 03:10:43;;;;;;;;;;;-3.50;75.50;;;;;;5023193;28;19925;-81
2022/01/13 03:13:10;;;;;;;;;;;-3.60;75.80;;;;;;5044736;28;19924;-79
2022/01/13 03:15:37;;;;;;;;;;;-3.70;77.70;;;;;;5047852;28;19921;-78
2022/01/13 03:18:04;;;;;;;;;;;-3.70;79.30;;;;;;5039065;28;19924;-77
2022/01/13 03:20:31;;;;;;;;;;;-3.70;78.70;;;;;;5042855;28;19925;-80
2022/01/13 03:22:57;;;;;;;;;;;-3.60;78.40;;;;;;5048947;28;19920;-79
2022/01/13 03:25:24;;;;;;;;;;;-3.60;77.70;;;;;;5074278;28;19924;-77
2022/01/13 03:27:56;;;;;;;;;;;-3.70;77.30;;;;;;5054350;28;20525;-81
2022/01/13 03:30:23;;;;;;;;;;;-3.70;76.80;;;;;;5053139;28;19981;-77
2022/01/13 03:32:50;;;;;;;;;;;-3.60;76.70;;;;;;5048192;28;19921;-78
2022/01/13 03:35:16;;;;;;;;;;;-3.50;76.50;;;;;;5040276;28;19928;-77
2022/01/13 03:37:43;;;;;;;;;;;-3.40;76.30;;;;;;5054166;28;19970;-78
2022/01/13 03:40:10;;;;;;;;;;;-3.50;76.70;;;;;;5073138;28;20387;-79
2022/01/13 03:42:37;;;;;;;;;;;-3.50;76.90;;;;;;5038870;28;19921;-79
2022/01/13 03:45:04;;;;;;;;;;;-3.70;77.10;;;;;;5049390;28;19921;-77
2022/01/13 03:47:31;;;;;;;;;;;-3.80;77.20;;;;;;5040768;28;19951;-78
2022/01/13 03:49:58;;;;;;;;;;;-3.90;76.70;;;;;;5043838;28;19946;-81
2022/01/13 03:52:24;;;;;;;;;;;-3.90;76.50;;;;;;5047829;28;20407;-77
2022/01/13 03:55:10;;;;;;;;;;;-4.00;78.70;;;;;;5046921;28;20020;-79
2022/01/13 03:57:56;;;;;;;;;;;-4.10;79.40;;;;;;5039292;28;19928;-78
2022/01/13 04:00:52;;;;;;;;;;;-4.10;79.60;;;;;;5053993;28;19975;-78
2022/01/13 04:03:19;;;;;;;;;;;-4.20;79.30;;;;;;5031349;28;19920;-78
2022/01/13 04:06:05;;;;;;;;;;;-4.20;79.40;;;;;;5060968;28;19920;-78
2022/01/13 04:08:32;;;;;;;;;;;-4.20;79.40;;;;;;5034985;28;19978;-81
2022/01/13 04:10:58;;;;;;;;;;;-4.30;78.90;;;;;;5021299;28;19955;-77
2022/01/13 04:16:15;;;;;;;;;;;-4.30;79.80;;;;;;5063268;28;19921;-79
2022/01/13 04:18:42;;;;;;;;;;;-4.30;79.40;;;;;;5052485;28;19921;-79
2022/01/13 04:21:09;;;;;;;;;;;-4.30;79.70;;;;;;5070371;28;19970;-78
2022/01/13 04:23:36;;;;;;;;;;;-4.30;80.70;;;;;;5052947;28;20288;-77
2022/01/13 04:26:07;;;;;;;;;;;-4.40;81.40;;;;;;5053322;28;19950;-81
2022/01/13 04:28:35;;;;;;;;;;;-4.40;80.50;;;;;;5063309;28;19986;-81
2022/01/13 04:31:02;;;;;;;;;;;-4.50;79.30;;;;;;5040114;28;20308;-79
2022/01/13 04:33:30;;;;;;;;;;;-4.50;79.20;;;;;;5038299;28;20281;-77
2022/01/13 04:35:57;;;;;;;;;;;-4.50;79.00;;;;;;5052175;28;19920;-78
2022/01/13 04:38:24;;;;;;;;;;;-4.50;79.10;;;;;;5036717;28;20335;-81
2022/01/13 04:40:56;;;;;;;;;;;-4.50;80.00;;;;;;5060954;28;19920;-77
2022/01/13 04:43:23;;;;;;;;;;;-4.50;78.70;;;;;;5065107;28;19925;-79
2022/01/13 04:45:50;;;;;;;;;;;-4.50;78.30;;;;;;5055748;28;19920;-78
2022/01/13 04:48:17;;;;;;;;;;;-4.50;77.80;;;;;;5051123;28;19971;-78
2022/01/13 04:50:44;;;;;;;;;;;-4.50;78.40;;;;;;5032057;28;19979;-77
2022/01/13 04:53:11;;;;;;;;;;;-4.50;78.50;;;;;;5056218;28;20442;-80
2022/01/13 04:55:39;;;;;;;;;;;-4.60;78.40;;;;;;5053128;28;19924;-78
2022/01/13 04:58:06;;;;;;;;;;;-4.60;78.50;;;;;;5049938;28;19925;-81
2022/01/13 05:00:33;;;;;;;;;;;-4.60;78.10;;;;;;5033114;28;19974;-78
2022/01/13 05:03:00;;;;;;;;;;;-4.60;78.50;;;;;;5040260;28;19928;-79
2022/01/13 05:05:27;;;;;;;;;;;-4.60;77.70;;;;;;5060353;28;19928;-78
2022/01/13 05:07:54;;;;;;;;;;;-4.60;78.40;;;;;;5071731;28;19962;-77
2022/01/13 05:10:20;;;;;;;;;;;-4.60;78.50;;;;;;5070764;28;19985;-78
2022/01/13 05:12:55;;;;;;;;;;;-4.70;78.40;;;;;;5072541;28;19921;-81
2022/01/13 05:15:25;;;;;;;;;;;-4.70;78.80;;;;;;5051410;28;19921;-81
2022/01/13 05:18:12;;;;;;;;;;;-4.70;78.70;;;;;;5037630;28;19921;-82
2022/01/13 05:20:41;;;;;;;;;;;-4.80;78.90;;;;;;5051584;28;19924;-76
2022/01/13 05:23:09;;;;;;;;;;;-4.80;79.30;;;;;;5043544;28;20344;-77
2022/01/13 05:25:36;;;;;;;;;;;-4.80;80.20;;;;;;5062694;28;19920;-78
2022/01/13 05:28:03;;;;;;;;;;;-4.80;79.90;;;;;;5054726;28;19924;-78
2022/01/13 05:30:30;;;;;;;;;;;-4.80;79.50;;;;;;5054002;28;20399;-78
2022/01/13 05:32:57;;;;;;;;;;;-4.80;79.80;;;;;;5051013;28;19921;-78
2022/01/13 05:35:24;;;;;;;;;;;-4.70;80.10;;;;;;5050544;28;19924;-78
2022/01/13 05:37:52;;;;;;;;;;;-4.70;79.80;;;;;;5053717;28;19925;-82
2022/01/13 05:40:19;;;;;;;;;;;-4.70;80.80;;;;;;5045147;28;19924;-77
2022/01/13 05:42:46;;;;;;;;;;;-4.80;81.00;;;;;;5038931;28;20372;-81
2022/01/13 05:45:18;;;;;;;;;;;-4.80;80.10;;;;;;5042196;28;19924;-77
2022/01/13 05:47:45;;;;;;;;;;;-4.80;80.40;;;;;;5042059;28;19975;-77
2022/01/13 05:50:13;;;;;;;;;;;-4.80;83.60;;;;;;5042890;28;19925;-80
2022/01/13 05:52:40;;;;;;;;;;;-4.80;83.20;;;;;;5062463;28;19928;-79
2022/01/13 05:55:08;;;;;;;;;;;-4.90;81.30;;;;;;5071878;28;19986;-78
2022/01/13 05:57:35;;;;;;;;;;;-4.90;81.00;;;;;;5066922;28;20380;-78
2022/01/13 06:00:04;;;;;;;;;;;-4.90;82.00;;;;;;5059302;28;19932;-79
2022/01/13 06:02:30;;;;;;;;;;;-4.90;81.30;;;;;;5055349;28;19927;-79
2022/01/13 06:04:58;;;;;;;;;;;-4.90;80.60;;;;;;5037448;28;19925;-78
2022/01/13 06:07:24;;;;;;;;;;;-4.90;81.30;;;;;;5050357;28;20388;-77
2022/01/13 06:09:51;;;;;;;;;;;-4.90;80.90;;;;;;5045417;28;19920;-80
2022/01/13 06:12:20;;;;;;;;;;;-4.90;80.40;;;;;;5036644;28;19924;-77
2022/01/13 06:14:46;;;;;;;;;;;-4.90;80.20;;;;;;5053697;28;19924;-78
2022/01/13 06:17:13;;;;;;;;;;;-4.90;80.50;;;;;;5056479;28;19947;-80
2022/01/13 06:19:40;;;;;;;;;;;-4.90;79.70;;;;;;5061820;28;19921;-78
2022/01/13 06:22:07;;;;;;;;;;;-5.00;80.10;;;;;;5051868;28;19921;-76
2022/01/13 06:24:34;;;;;;;;;;;-4.90;80.90;;;;;;5049326;28;19928;-77
2022/01/13 06:27:01;;;;;;;;;;;-4.90;81.80;;;;;;5061580;28;20383;-79
2022/01/13 06:29:28;;;;;;;;;;;-4.90;80.80;;;;;;5066612;28;19928;-77
2022/01/13 06:31:56;;;;;;;;;;;-4.90;80.70;;;;;;5036769;28;20339;-78
2022/01/13 06:34:23;;;;;;;;;;;-4.90;80.50;;;;;;5048795;28;20262;-79
2022/01/13 06:36:50;;;;;;;;;;;-4.90;80.40;;;;;;5042363;28;19924;-78
2022/01/13 06:39:17;;;;;;;;;;;-4.90;80.60;;;;;;5061705;28;19920;-77
2022/01/13 06:41:44;;;;;;;;;;;-5.00;80.10;;;;;;5042988;28;19928;-79
2022/01/13 06:44:10;;;;;;;;;;;-5.00;80.50;;;;;;5028778;28;19924;-78
2022/01/13 06:46:37;;;;;;;;;;;-5.00;82.50;;;;;;5026406;28;20028;-77
2022/01/13 06:49:04;;;;;;;;;;;-5.00;82.50;;;;;;5038248;28;20347;-77
2022/01/13 06:51:33;;;;;;;;;;;-5.00;82.60;;;;;;5046230;28;20321;-78
2022/01/13 06:53:59;;;;;;;;;;;-5.00;83.10;;;;;;5047587;28;19925;-77
2022/01/13 06:56:26;;;;;;;;;;;-5.00;82.20;;;;;;5035384;28;19974;-77
2022/01/13 06:58:54;;;;;;;;;;;-5.00;81.90;;;;;;5055298;28;19987;-79
2022/01/13 07:01:21;;;;;;;;;;;-5.00;81.70;;;;;;5054799;28;20385;-77
2022/01/13 07:03:49;;;;;;;;;;;-5.10;81.40;;;;;;5016898;28;20301;-77
2022/01/13 07:06:16;;;;;;;;;;;-5.10;82.50;;;;;;5044467;28;19921;-77
2022/01/13 07:08:43;;;;;;;;;;;-5.10;83.10;;;;;;5050681;28;19928;-77
2022/01/13 07:11:09;;;;;;;;;;;-5.10;82.40;;;;;;5068706;28;19989;-78
2022/01/13 07:13:36;;;;;;;;;;;-5.00;82.80;;;;;;5072153;28;19924;-80
2022/01/13 07:16:03;;;;;;;;;;;-5.00;82.70;;;;;;5068015;28;19993;-77
2022/01/13 07:18:31;;;;;;;;;;;-5.00;82.50;;;;;;5065229;28;19975;-78
2022/01/13 07:20:58;;;;;;;;;;;-5.00;82.40;;;;;;5045387;28;19974;-80
2022/01/13 07:23:25;;;;;;;;;;;-5.00;82.10;;;;;;5056564;28;19921;-77
2022/01/13 07:25:52;;;;;;;;;;;-5.00;81.90;;;;;;5048741;28;20502;-78
2022/01/13 07:28:18;;;;;;;;;;;-5.00;83.70;;;;;;5032003;28;20523;-78
2022/01/13 07:30:45;;;;;;;;;;;-5.00;82.20;;;;;;5054381;28;19924;-79
2022/01/13 07:33:12;;;;;;;;;;;-4.90;82.40;;;;;;5043079;28;20330;-80
2022/01/13 07:35:39;;;;;;;;;;;-5.00;82.00;;;;;;5034953;28;20495;-78
2022/01/13 07:38:06;;;;;;;;;;;-5.00;81.80;;;;;;5049894;28;19928;-79
2022/01/13 07:40:34;;;;;;;;;;;-5.00;82.10;;;;;;5035257;28;20041;-77
2022/01/13 07:43:02;;;;;;;;;;;-5.00;81.80;;;;;;5035059;28;19971;-79
2022/01/13 07:45:29;;;;;;;;;;;-4.90;82.70;;;;;;5046822;28;19921;-78
2022/01/13 07:47:56;;;;;;;;;;;-4.90;82.00;;;;;;5030631;28;20012;-78
2022/01/13 07:50:28;;;;;;;;;;;-4.90;82.20;;;;;;5035593;28;20563;-79
2022/01/13 07:52:55;;;;;;;;;;;-4.80;83.70;;;;;;5051237;28;19921;-79
2022/01/13 07:55:22;;;;;;;;;;;-4.70;84.90;;;;;;5073320;28;20338;-78
2022/01/13 07:57:49;;;;;;;;;;;-4.10;84.30;;;;;;5036409;28;20335;-78
2022/01/13 08:00:15;;;;;;;;;;;-3.30;82.30;;;;;;5054432;28;20277;-79
2022/01/13 08:02:42;;;;;;;;;;;-2.80;79.30;;;;;;5054581;28;19920;-80
2022/01/13 08:05:10;;;;;;;;;;;-2.30;77.50;;;;;;5040012;28;19921;-78
2022/01/13 08:07:37;;;;;;;;;;;-2.00;76.70;;;;;;5023424;28;20336;-77
2022/01/13 08:10:04;;;;;;;;;;;-1.90;78.30;;;;;;5048259;28;20361;-77
2022/01/13 08:12:31;;;;;;;;;;;-1.70;77.50;;;;;;5031574;28;19932;-77
2022/01/13 08:14:58;;;;;;;;;;;-1.50;77.60;;;;;;5045245;28;19982;-78
2022/01/13 08:20:11;;;;;;;;;;;-1.00;74.30;;;;;;5024757;28;19928;-78
2022/01/13 08:22:38;;;;;;;;;;;-0.70;73.60;;;;;;5031705;28;20034;-78
2022/01/13 08:25:08;;;;;;;;;;;-0.40;73.20;;;;;;5037607;28;19936;-77
2022/01/13 08:27:35;;;;;;;;;;;-0.20;70.50;;;;;;5039110;28;19974;-78
2022/01/13 08:30:02;;;;;;;;;;;0.10;67.70;;;;;;5046621;28;20401;-79
2022/01/13 08:32:29;;;;;;;;;;;0.40;66.30;;;;;;5033898;28;19975;-78
2022/01/13 08:34:56;;;;;;;;;;;0.70;65.10;;;;;;5044937;28;20011;-76
2022/01/13 08:37:25;;;;;;;;;;;0.90;64.40;;;;;;5023688;28;19924;-78
2022/01/13 08:39:52;;;;;;;;;;;1.10;63.30;;;;;;5015441;28;19921;-78
2022/01/13 08:42:18;;;;;;;;;;;1.40;63.10;;;;;;5043077;28;19921;-77
2022/01/13 08:44:45;;;;;;;;;;;1.60;61.60;;;;;;5040396;28;19928;-78
2022/01/13 08:47:12;;;;;;;;;;;1.80;61.00;;;;;;5045734;28;19928;-78
2022/01/13 08:49:39;;;;;;;;;;;2.00;59.90;;;;;;5046334;28;19963;-78
2022/01/13 08:52:06;;;;;;;;;;;2.20;60.20;;;;;;5050213;28;19921;-78
2022/01/13 08:54:33;;;;;;;;;;;2.40;59.50;;;;;;5046429;28;19947;-80
2022/01/13 08:57:00;;;;;;;;;;;2.50;58.30;;;;;;5032557;28;19921;-76
2022/01/13 08:59:28;;;;;;;;;;;2.70;58.50;;;;;;5015284;28;20307;-78
2022/01/13 09:01:55;;;;;;;;;;;2.80;56.90;;;;;;5026529;28;19927;-78
2022/01/13 09:04:22;;;;;;;;;;;2.90;55.20;;;;;;5069283;28;19974;-78
2022/01/13 09:06:49;;;;;;;;;;;3.00;55.40;;;;;;5046999;28;19925;-78
2022/01/13 09:09:16;;;;;;;;;;;3.10;55.20;;;;;;5052502;28;19924;-78
2022/01/13 09:11:43;;;;;;;;;;;3.20;53.90;;;;;;5038370;28;20400;-77
2022/01/13 09:14:10;;;;;;;;;;;3.40;54.20;;;;;;5032354;28;19921;-78
2022/01/13 09:16:46;;;;;;;;;;;3.50;55.80;;;;;;5029995;28;19944;-79
2022/01/13 09:19:14;;;;;;;;;;;3.50;57.80;;;;;;5044934;28;20396;-80
2022/01/13 09:21:43;;;;;;;;;;;3.60;58.60;;;;;;5040174;28;20456;-78
2022/01/13 09:24:12;;;;;;;;;;;3.60;58.70;;;;;;5042327;28;19925;-76
2022/01/13 09:26:39;;;;;;;;;;;3.70;58.90;;;;;;5033708;28;19932;-78
2022/01/13 09:29:06;;;;;;;;;;;3.70;57.60;;;;;;5053949;28;19932;-77
2022/01/13 09:31:37;;;;;;;;;;;3.70;58.80;;;;;;5049047;28;19928;-78
2022/01/13 09:34:05;;;;;;;;;;;3.80;58.10;;;;;;5035646;28;19924;-78
2022/01/13 09:36:32;;;;;;;;;;;3.90;58.30;;;;;;5068429;28;19936;-78
2022/01/13 09:38:59;;;;;;;;;;;3.60;59.50;;;;;;5056405;28;19932;-77
2022/01/13 09:41:28;;;;;;;;;;;3.70;60.50;;;;;;5058031;28;19924;-78
2022/01/13 09:43:55;;;;;;;;;;;3.80;60.40;;;;;;5051573;28;19925;-79
2022/01/13 09:46:26;;;;;;;;;;;3.80;60.40;;;;;;5034224;28;19924;-78
2022/01/13 09:48:54;;;;;;;;;;;3.70;60.90;;;;;;5034699;28;19929;-77
2022/01/13 09:51:27;;;;;;;;;;;3.70;60.50;;;;;;5027101;28;19935;-78
2022/01/13 09:53:54;;;;;;;;;;;3.60;61.30;;;;;;5069844;28;19955;-79
2022/01/13 09:56:21;;;;;;;;;;;3.70;61.30;;;;;;5069248;28;19928;-78
2022/01/13 09:58:48;;;;;;;;;;;3.90;61.70;;;;;;5029513;28;20312;-76
2022/01/13 10:01:14;;;;;;;;;;;4.10;60.80;;;;;;5041845;28;19932;-80
2022/01/13 10:03:42;;;;;;;;;;;4.20;60.00;;;;;;5058822;28;19968;-76
2022/01/13 10:06:10;;;;;;;;;;;4.40;59.10;;;;;;5049031;28;19925;-78
2022/01/13 10:08:40;;;;;;;;;;;4.40;58.70;;;;;;5067667;28;19931;-78
2022/01/13 10:11:25;;;;;;;;;;;4.50;58.80;;;;;;5049209;28;19947;-76
2022/01/13 10:14:12;;;;;;;;;;;4.70;57.90;;;;;;5072879;28;20388;-79
2022/01/13 10:16:43;;;;;;;;;;;4.80;57.10;;;;;;5052101;28;19935;-78
2022/01/13 10:19:29;;;;;;;;;;;5.00;57.20;;;;;;5027081;28;19925;-79
2022/01/13 10:21:58;;;;;;;;;;;5.10;56.70;;;;;;5041305;28;19925;-79
2022/01/13 10:24:25;;;;;;;;;;;5.30;56.40;;;;;;5058054;28;19924;-77
2022/01/13 10:27:01;;;;;;;;;;;5.30;56.30;;;;;;5056554;28;20468;-78
2022/01/13 10:29:45;;;;;;;;;;;5.40;56.20;;;;;;5048959;28;19975;-79
2022/01/13 10:32:23;;;;;;;;;;;5.50;56.30;;;;;;5034626;28;20729;-79
2022/01/13 10:34:56;;;;;;;;;;;5.50;55.40;;;;;;5066014;28;19925;-79
2022/01/13 10:37:32;;;;;;;;;;;5.60;55.40;;;;;;5059739;28;19928;-80
2022/01/13 10:40:01;;;;;;;;;;;5.60;53.00;;;;;;5030805;28;19947;-77
2022/01/13 10:45:04;;;;;;;;;;;5.60;53.30;;;;;;5068182;28;19928;-80
2022/01/13 10:47:31;;;;;;;;;;;5.80;52.60;;;;;;5050880;28;20454;-79
2022/01/13 10:50:06;;;;;;;;;;;5.70;51.30;;;;;;5055277;28;19924;-76
2022/01/13 10:52:33;;;;;;;;;;;5.80;51.80;;;;;;5043445;28;19940;-76
2022/01/13 10:55:11;;;;;;;;;;;6.00;51.30;;;;;;5044518;28;19924;-79
2022/01/13 10:57:58;;;;;;;;;;;6.00;49.90;;;;;;5029678;28;19978;-80
2022/01/13 11:00:26;;;;;;;;;;;6.10;50.40;;;;;;5066345;28;19947;-77
2022/01/13 11:02:59;;;;;;;;;;;6.20;49.00;;;;;;5065701;28;20391;-79
2022/01/13 11:05:27;;;;;;;;;;;6.40;49.60;;;;;;5052973;28;19932;-79
2022/01/13 11:07:56;;;;;;;;;;;6.60;49.50;;;;;;5070520;28;19925;-80
2022/01/13 11:10:23;;;;;;;;;;;6.80;49.40;;;;;;5063585;28;20019;-79
2022/01/13 11:13:02;;;;;;;;;;;7.00;49.00;;;;;;5065894;28;19932;-80
2022/01/13 11:15:29;;;;;;;;;;;7.20;48.60;;;;;;5044418;28;19932;-79
2022/01/13 11:17:57;;;;;;;;;;;7.20;46.60;;;;;;5034174;28;19929;-78
2022/01/13 11:20:25;;;;;;;;;;;7.30;46.60;;;;;;5049233;28;20308;-80
2022/01/13 11:22:53;;;;;;;;;;;7.10;45.60;;;;;;5041873;28;20389;-80
2022/01/13 11:25:23;;;;;;;;;;;7.10;46.60;;;;;;5053166;28;19932;-76
2022/01/13 11:27:51;;;;;;;;;;;7.20;46.20;;;;;;5072345;28;20335;-79
2022/01/13 11:30:19;;;;;;;;;;;7.40;46.30;;;;;;5055838;28;20460;-80
2022/01/13 11:32:46;;;;;;;;;;;7.50;46.00;;;;;;5046966;28;19928;-76
2022/01/13 11:35:14;;;;;;;;;;;7.80;45.80;;;;;;5053519;28;19936;-78
2022/01/13 11:37:42;;;;;;;;;;;7.90;45.00;;;;;;5048106;28;19935;-80
2022/01/13 11:40:29;;;;;;;;;;;8.10;44.30;;;;;;5070719;28;19978;-77
2022/01/13 11:42:58;;;;;;;;;;;8.10;43.60;;;;;;5049755;28;19928;-80
2022/01/13 11:45:25;;;;;;;;;;;8.30;44.70;;;;;;5053977;28;20342;-80
2022/01/13 11:48:12;;;;;;;;;;;8.50;43.80;;;;;;5063847;28;20303;-80
2022/01/13 11:50:46;;;;;;;;;;;8.60;40.60;;;;;;5036594;28;19925;-79
2022/01/13 11:53:32;;;;;;;;;;;8.70;40.20;;;;;;5065764;28;19928;-78
2022/01/13 11:56:03;;;;;;;;;;;8.90;39.80;;;;;;5054440;28;19980;-80
2022/01/13 11:58:44;;;;;;;;;;;8.90;39.10;;;;;;5055278;28;19933;-79
2022/01/13 12:01:19;;;;;;;;;;;9.00;40.20;;;;;;5036270;28;19931;-79
2022/01/13 12:03:52;;;;;;;;;;;9.10;39.30;;;;;;5045462;28;19953;-77
2022/01/13 12:06:31;;;;;;;;;;;9.20;39.90;;;;;;5051186;28;19929;-77
2022/01/13 12:08:58;;;;;;;;;;;9.30;38.70;;;;;;5047507;28;19929;-79
2022/01/13 12:11:38;;;;;;;;;;;9.20;38.40;;;;;;5058956;28;19924;-79
2022/01/13 12:14:23;;;;;;;;;;;9.30;38.50;;;;;;5051645;28;19936;-77
2022/01/13 12:16:52;;;;;;;;;;;9.40;39.00;;;;;;5064953;28;20388;-80
2022/01/13 12:19:31;;;;;;;;;;;9.60;39.10;;;;;;5054413;28;19928;-79
2022/01/13 12:22:04;;;;;;;;;;;9.40;37.30;;;;;;5046428;28;19979;-79
2022/01/13 12:24:43;;;;;;;;;;;9.50;37.90;;;;;;5054982;28;19931;-79
2022/01/13 12:27:10;;;;;;;;;;;9.40;38.50;;;;;;5038876;28;19925;-80
2022/01/13 12:29:48;;;;;;;;;;;9.50;38.20;;;;;;5057549;28;19956;-79
2022/01/13 12:32:18;;;;;;;;;;;9.60;37.90;;;;;;5048220;28;20404;-80
2022/01/13 12:34:45;;;;;;;;;;;9.80;37.80;;;;;;5036399;28;19928;-80
2022/01/13 12:37:12;;;;;;;;;;;10.00;37.30;;;;;;5034831;28;19932;-79
2022/01/13 12:39:46;;;;;;;;;;;9.90;36.30;;;;;;5035698;28;19929;-77
2022/01/13 12:42:14;;;;;;;;;;;10.00;35.90;;;;;;5043949;28;20397;-77
2022/01/13 12:47:30;;;;;;;;;;;9.90;34.80;;;;;;5044130;28;20594;-79
2022/01/13 12:49:56;;;;;;;;;;;10.00;35.10;;;;;;5040460;28;20407;-77
2022/01/13 12:52:24;;;;;;;;;;;10.00;34.20;;;;;;5059223;28;20387;-79
2022/01/13 12:54:53;;;;;;;;;;;10.00;35.00;;;;;;5060066;28;19924;-80
2022/01/13 12:57:23;;;;;;;;;;;9.90;35.30;;;;;;5039795;28;20339;-80
2022/01/13 12:59:56;;;;;;;;;;;10.10;35.20;;;;;;5029373;28;20050;-79
2022/01/13 13:02:23;;;;;;;;;;;10.20;34.60;;;;;;5028501;28;19990;-78
2022/01/13 13:04:51;;;;;;;;;;;10.20;32.80;;;;;;5046911;28;20281;-79
2022/01/13 13:07:18;;;;;;;;;;;10.30;34.80;;;;;;5053167;28;19928;-79
2022/01/13 13:09:45;;;;;;;;;;;10.40;34.80;;;;;;5034629;28;20003;-77
2022/01/13 13:12:22;;;;;;;;;;;10.60;34.00;;;;;;5060435;28;20383;-79
2022/01/13 13:17:40;;;;;;;;;;;10.60;32.90;;;;;;5044768;28;19925;-79
2022/01/13 13:20:21;;;;;;;;;;;10.70;33.20;;;;;;5044201;28;19925;-79
2022/01/13 13:22:51;;;;;;;;;;;10.70;33.10;;;;;;5055744;28;19934;-78
2022/01/13 13:25:28;;;;;;;;;;;10.80;32.10;;;;;;5028568;28;19933;-77
2022/01/13 13:27:55;;;;;;;;;;;10.80;32.10;;;;;;5041928;28;20006;-78
2022/01/13 13:30:22;;;;;;;;;;;10.80;32.10;;;;;;5043840;28;19924;-78
2022/01/13 13:33:08;;;;;;;;;;;10.50;33.00;;;;;;5039261;28;19952;-79
2022/01/13 13:35:35;;;;;;;;;;;10.50;32.90;;;;;;5035910;28;19924;-77
2022/01/13 13:38:02;;;;;;;;;;;10.50;33.40;;;;;;5040858;28;19939;-79
2022/01/13 13:40:29;;;;;;;;;;;10.50;35.10;;;;;;5053047;28;19925;-77
2022/01/13 13:43:03;;;;;;;;;;;10.60;34.20;;;;;;5049535;28;19975;-79
2022/01/13 13:45:30;;;;;;;;;;;10.50;33.80;;;;;;5045641;28;20292;-77
2022/01/13 13:47:57;;;;;;;;;;;10.60;34.00;;;;;;5033998;28;19925;-78
2022/01/13 13:50:25;;;;;;;;;;;10.50;33.80;;;;;;5040686;28;20015;-78
2022/01/13 13:53:08;;;;;;;;;;;10.50;34.50;;;;;;5036227;28;19925;-76
2022/01/13 13:55:35;;;;;;;;;;;10.60;34.90;;;;;;5045017;28;19931;-77
2022/01/13 13:58:02;;;;;;;;;;;10.60;34.80;;;;;;5050677;28;20338;-78
2022/01/13 14:00:29;;;;;;;;;;;10.50;34.90;;;;;;5057949;28;19925;-77
2022/01/13 14:02:58;;;;;;;;;;;10.40;35.40;;;;;;5055724;28;19925;-79
2022/01/13 14:05:37;;;;;;;;;;;10.40;36.70;;;;;;5061742;28;19981;-77
2022/01/13 14:08:05;;;;;;;;;;;10.30;35.90;;;;;;5052306;28;19924;-78
2022/01/13 14:10:32;;;;;;;;;;;10.40;36.50;;;;;;5053790;28;20384;-78
2022/01/13 14:13:09;;;;;;;;;;;10.40;36.20;;;;;;5044851;28;19928;-78
2022/01/13 14:15:37;;;;;;;;;;;10.40;35.70;;;;;;5043376;28;20389;-76
2022/01/13 14:18:14;;;;;;;;;;;10.40;36.20;;;;;;5034209;28;20016;-77
2022/01/13 14:20:44;;;;;;;;;;;10.30;36.30;;;;;;5039633;28;20297;-78
2022/01/13 14:23:18;;;;;;;;;;;10.30;36.60;;;;;;5038935;28;19925;-78
2022/01/13 14:25:46;;;;;;;;;;;10.30;36.50;;;;;;5038097;28;19932;-77
2022/01/13 14:28:19;;;;;;;;;;;10.30;36.20;;;;;;5046312;28;19933;-79
2022/01/13 14:30:47;;;;;;;;;;;10.30;36.30;;;;;;5043294;28;19924;-79
2022/01/13 14:33:23;;;;;;;;;;;10.20;36.20;;;;;;5037393;28;20444;-77
2022/01/13 14:36:19;;;;;;;;;;;10.10;36.60;;;;;;5043724;28;19924;-78
2022/01/13 14:38:54;;;;;;;;;;;10.00;36.90;;;;;;5026282;28;20017;-79
2022/01/13 14:41:27;;;;;;;;;;;9.90;36.60;;;;;;5032180;28;20420;-80
2022/01/13 14:44:07;;;;;;;;;;;9.90;37.60;;;;;;5023714;28;19929;-78
2022/01/13 14:46:36;;;;;;;;;;;10.00;37.20;;;;;;5042181;28;20387;-78
2022/01/13 14:49:04;;;;;;;;;;;9.90;37.40;;;;;;5054276;28;19935;-78
2022/01/13 14:51:31;;;;;;;;;;;9.90;38.50;;;;;;5036030;28;20018;-77
2022/01/13 14:53:59;;;;;;;;;;;9.90;37.90;;;;;;5030885;28;19925;-79
2022/01/13 14:56:27;;;;;;;;;;;10.00;38.20;;;;;;5049317;28;19932;-78
2022/01/13 14:58:54;;;;;;;;;;;10.00;38.00;;;;;;5060728;28;20456;-80
2022/01/13 15:01:21;;;;;;;;;;;9.90;37.20;;;;;;5020006;28;20451;-79
2022/01/13 15:03:49;;;;;;;;;;;9.90;37.30;;;;;;5026894;28;20012;-78
2022/01/13 15:06:16;;;;;;;;;;;9.90;37.50;;;;;;5040113;28;20831;-79
2022/01/13 15:08:43;;;;;;;;;;;9.70;37.90;;;;;;5038870;28;20282;-77